sensor_id;sensor_type;location;lat;lon;timestamp;temperature;humidity
7472;DHT22;3777;48.722;8.110;2023-02-01T00:00:27;6.00;99.90
7472;DHT22;3777;48.722;8.110;2023-02-01T00:02:55;5.90;99.90
7472;DHT22;3777;48.722;8.110;2023-02-01T00:05:22;5.80;99.90
7472;DHT22;3777;48.722;8.110;2023-02-01T00:07:49;5.70;99.90
7472;DHT22;3777;48.722;8.110;2023-02-01T00:10:17;5.70;99.90
7472;DHT22;3777;48.722;8.110;2023-02-01T00:12:44;5.60;99.90
7472;DHT22;3777;48.722;8.110;2023-02-01T00:15:11;5.60;99.90
7472;DHT22;3777;48.722;8.110;2023-02-01T00:17:38;5.60;99.90
7472;DHT22;3777;48.722;8.110;2023-02-01T00:20:08;5.60;99.90
7472;DHT22;3777;48.722;8.110;2023-02-01T00:22:35;5.60;99.90
7472;DHT22;3777;48.722;8.110;2023-02-01T00:25:02;5.70;99.90
7472;DHT22;3777;48.722;8.110;2023-02-01T00:27:29;5.70;99.90
7472;DHT22;3777;48.722;8.110;2023-02-01T00:29:56;5.60;99.90
7472;DHT22;3777;48.722;8.110;2023-02-01T00:32:23;5.60;99.90
7472;DHT22;3777;48.722;8.110;2023-02-01T00:34:50;5.60;99.90
7472;DHT22;3777;48.722;8.110;2023-02-01T00:37:18;5.70;99.90
7472;DHT22;3777;48.722;8.110;2023-02-01T00:39:45;5.80;99.90
7472;DHT22;3777;48.722;8.110;2023-02-01T00:42:12;5.80;99.90
7472;DHT22;3777;48.722;8.110;2023-02-01T00:44:39;5.80;99.90
7472;DHT22;3777;48.722;8.110;2023-02-01T00:47:06;5.70;99.90
7472;DHT22;3777;48.722;8.110;2023-02-01T00:49:33;5.60;99.90
7472;DHT22;3777;48.722;8.110;2023-02-01T00:52:00;5.70;99.90
7472;DHT22;3777;48.722;8.110;2023-02-01T00:54:28;5.80;99.90
7472;DHT22;3777;48.722;8.110;2023-02-01T00:56:55;5.80;99.90
7472;DHT22;3777;48.722;8.110;2023-02-01T00:59:22;5.80;99.90
7472;DHT22;3777;48.722;8.110;2023-02-01T01:01:49;5.80;99.90
7472;DHT22;3777;48.722;8.110;2023-02-01T01:04:16;5.90;99.90
7472;DHT22;3777;48.722;8.110;2023-02-01T01:06:43;6.00;99.90
7472;DHT22;3777;48.722;8.110;2023-02-01T01:09:10;6.10;99.90
7472;DHT22;3777;48.722;8.110;2023-02-01T01:11:38;6.20;99.90
7472;DHT22;3777;48.722;8.110;2023-02-01T01:14:07;6.20;99.90
7472;DHT22;3777;48.722;8.110;2023-02-01T01:16:34;6.10;99.90
7472;DHT22;3777;48.722;8.110;2023-02-01T01:19:02;6.20;99.90
7472;DHT22;3777;48.722;8.110;2023-02-01T01:21:29;6.00;99.90
7472;DHT22;3777;48.722;8.110;2023-02-01T01:23:57;6.00;99.90
7472;DHT22;3777;48.722;8.110;2023-02-01T01:26:27;6.10;99.90
7472;DHT22;3777;48.722;8.110;2023-02-01T01:28:57;6.10;99.90
7472;DHT22;3777;48.722;8.110;2023-02-01T01:31:24;6.10;99.90
7472;DHT22;3777;48.722;8.110;2023-02-01T01:33:53;6.20;99.90
7472;DHT22;3777;48.722;8.110;2023-02-01T01:36:21;6.20;99.90
7472;DHT22;3777;48.722;8.110;2023-02-01T01:38:48;6.20;99.90
7472;DHT22;3777;48.722;8.110;2023-02-01T01:41:17;6.10;99.90
7472;DHT22;3777;48.722;8.110;2023-02-01T01:43:50;6.00;99.90
7472;DHT22;3777;48.722;8.110;2023-02-01T01:46:21;6.00;99.90
7472;DHT22;3777;48.722;8.110;2023-02-01T01:48:51;5.90;99.90
7472;DHT22;3777;48.722;8.110;2023-02-01T01:51:21;5.90;99.90
7472;DHT22;3777;48.722;8.110;2023-02-01T01:53:56;5.90;99.90
7472;DHT22;3777;48.722;8.110;2023-02-01T01:56:25;6.00;99.90
7472;DHT22;3777;48.722;8.110;2023-02-01T01:58:53;6.00;99.90
7472;DHT22;3777;48.722;8.110;2023-02-01T02:01:22;6.00;99.90
7472;DHT22;3777;48.722;8.110;2023-02-01T02:03:49;6.00;99.90
7472;DHT22;3777;48.722;8.110;2023-02-01T02:06:23;5.90;99.90
7472;DHT22;3777;48.722;8.110;2023-02-01T02:08:52;5.90;99.90
7472;DHT22;3777;48.722;8.110;2023-02-01T02:11:19;5.90;99.90
7472;DHT22;3777;48.722;8.110;2023-02-01T02:13:48;5.90;99.90
7472;DHT22;3777;48.722;8.110;2023-02-01T02:16:37;5.80;99.90
7472;DHT22;3777;48.722;8.110;2023-02-01T02:22:24;5.70;99.90
7472;DHT22;3777;48.722;8.110;2023-02-01T02:25:17;5.80;99.90
7472;DHT22;3777;48.722;8.110;2023-02-01T02:27:50;5.90;99.90
7472;DHT22;3777;48.722;8.110;2023-02-01T02:33:59;6.00;99.90
7472;DHT22;3777;48.722;8.110;2023-02-01T02:36:35;6.20;99.90
7472;DHT22;3777;48.722;8.110;2023-02-01T02:39:07;6.20;99.90
7472;DHT22;3777;48.722;8.110;2023-02-01T02:41:44;6.30;99.90
7472;DHT22;3777;48.722;8.110;2023-02-01T02:44:46;6.40;99.90
7472;DHT22;3777;48.722;8.110;2023-02-01T02:47:36;6.50;99.90
7472;DHT22;3777;48.722;8.110;2023-02-01T02:50:24;6.50;99.90
7472;DHT22;3777;48.722;8.110;2023-02-01T02:53:12;6.50;99.90
7472;DHT22;3777;48.722;8.110;2023-02-01T02:55:59;6.50;99.90
7472;DHT22;3777;48.722;8.110;2023-02-01T02:58:45;6.50;99.90
7472;DHT22;3777;48.722;8.110;2023-02-01T03:01:30;6.50;99.90
7472;DHT22;3777;48.722;8.110;2023-02-01T03:04:16;6.50;99.90
7472;DHT22;3777;48.722;8.110;2023-02-01T03:06:45;6.50;99.90
7472;DHT22;3777;48.722;8.110;2023-02-01T03:09:16;6.50;99.90
7472;DHT22;3777;48.722;8.110;2023-02-01T03:11:45;6.50;99.90
7472;DHT22;3777;48.722;8.110;2023-02-01T03:14:33;6.50;99.90
7472;DHT22;3777;48.722;8.110;2023-02-01T03:17:04;6.50;99.90
7472;DHT22;3777;48.722;8.110;2023-02-01T03:19:37;6.50;99.90
7472;DHT22;3777;48.722;8.110;2023-02-01T03:22:14;6.40;99.90
7472;DHT22;3777;48.722;8.110;2023-02-01T03:24:43;6.40;99.90
7472;DHT22;3777;48.722;8.110;2023-02-01T03:27:14;6.40;99.90
7472;DHT22;3777;48.722;8.110;2023-02-01T03:29:47;6.40;99.90
7472;DHT22;3777;48.722;8.110;2023-02-01T03:32:16;6.40;99.90
7472;DHT22;3777;48.722;8.110;2023-02-01T03:34:43;6.40;99.90
7472;DHT22;3777;48.722;8.110;2023-02-01T03:37:15;6.40;99.90
7472;DHT22;3777;48.722;8.110;2023-02-01T03:39:46;6.40;99.90
7472;DHT22;3777;48.722;8.110;2023-02-01T03:42:17;6.30;99.90
7472;DHT22;3777;48.722;8.110;2023-02-01T03:44:49;6.20;99.90
7472;DHT22;3777;48.722;8.110;2023-02-01T03:47:19;6.20;99.90
7472;DHT22;3777;48.722;8.110;2023-02-01T03:49:50;6.20;99.90
7472;DHT22;3777;48.722;8.110;2023-02-01T03:52:24;6.10;99.90
7472;DHT22;3777;48.722;8.110;2023-02-01T03:54:52;6.00;99.90
7472;DHT22;3777;48.722;8.110;2023-02-01T03:57:23;5.90;99.90
7472;DHT22;3777;48.722;8.110;2023-02-01T03:59:52;5.80;99.90
7472;DHT22;3777;48.722;8.110;2023-02-01T04:02:19;5.70;99.90
7472;DHT22;3777;48.722;8.110;2023-02-01T04:04:46;5.80;99.90
7472;DHT22;3777;48.722;8.110;2023-02-01T04:07:13;5.80;99.90
7472;DHT22;3777;48.722;8.110;2023-02-01T04:09:43;5.80;99.90
7472;DHT22;3777;48.722;8.110;2023-02-01T04:12:10;5.90;99.90
7472;DHT22;3777;48.722;8.110;2023-02-01T04:14:37;6.00;99.90
7472;DHT22;3777;48.722;8.110;2023-02-01T04:17:04;6.00;99.90
7472;DHT22;3777;48.722;8.110;2023-02-01T04:19:31;6.10;99.90
7472;DHT22;3777;48.722;8.110;2023-02-01T04:21:58;6.00;99.90
7472;DHT22;3777;48.722;8.110;2023-02-01T04:24:25;6.00;99.90
7472;DHT22;3777;48.722;8.110;2023-02-01T04:26:53;6.00;99.90
7472;DHT22;3777;48.722;8.110;2023-02-01T04:29:20;6.10;99.90
7472;DHT22;3777;48.722;8.110;2023-02-01T04:31:47;6.00;99.90
7472;DHT22;3777;48.722;8.110;2023-02-01T04:34:15;6.00;99.90
7472;DHT22;3777;48.722;8.110;2023-02-01T04:36:42;6.00;99.90
7472;DHT22;3777;48.722;8.110;2023-02-01T04:39:09;6.10;99.90
7472;DHT22;3777;48.722;8.110;2023-02-01T04:41:36;6.10;99.90
7472;DHT22;3777;48.722;8.110;2023-02-01T04:44:04;6.20;99.90
7472;DHT22;3777;48.722;8.110;2023-02-01T04:46:31;6.30;99.90
7472;DHT22;3777;48.722;8.110;2023-02-01T04:48:58;6.20;99.90
7472;DHT22;3777;48.722;8.110;2023-02-01T04:51:25;6.30;99.90
7472;DHT22;3777;48.722;8.110;2023-02-01T04:53:52;6.30;99.90
7472;DHT22;3777;48.722;8.110;2023-02-01T04:56:21;6.40;99.90
7472;DHT22;3777;48.722;8.110;2023-02-01T04:58:48;6.50;99.90
7472;DHT22;3777;48.722;8.110;2023-02-01T05:01:16;6.60;99.90
7472;DHT22;3777;48.722;8.110;2023-02-01T05:03:43;6.70;99.90
7472;DHT22;3777;48.722;8.110;2023-02-01T05:06:10;6.80;99.90
7472;DHT22;3777;48.722;8.110;2023-02-01T05:08:37;6.80;99.90
7472;DHT22;3777;48.722;8.110;2023-02-01T05:11:04;6.90;99.90
7472;DHT22;3777;48.722;8.110;2023-02-01T05:13:31;6.90;99.90
7472;DHT22;3777;48.722;8.110;2023-02-01T05:16:17;7.00;99.90
7472;DHT22;3777;48.722;8.110;2023-02-01T05:18:44;7.00;99.90
7472;DHT22;3777;48.722;8.110;2023-02-01T05:21:11;7.00;99.90
7472;DHT22;3777;48.722;8.110;2023-02-01T05:23:38;7.10;99.90
7472;DHT22;3777;48.722;8.110;2023-02-01T05:26:18;7.00;99.90
7472;DHT22;3777;48.722;8.110;2023-02-01T05:28:45;7.00;99.90
7472;DHT22;3777;48.722;8.110;2023-02-01T05:31:12;7.00;99.90
7472;DHT22;3777;48.722;8.110;2023-02-01T05:33:41;7.00;99.90
7472;DHT22;3777;48.722;8.110;2023-02-01T05:36:08;7.00;99.90
7472;DHT22;3777;48.722;8.110;2023-02-01T05:38:35;7.00;99.90
7472;DHT22;3777;48.722;8.110;2023-02-01T05:41:01;6.90;99.90
7472;DHT22;3777;48.722;8.110;2023-02-01T05:43:29;6.90;99.90
7472;DHT22;3777;48.722;8.110;2023-02-01T05:45:55;6.90;99.90
7472;DHT22;3777;48.722;8.110;2023-02-01T05:48:22;6.90;99.90
7472;DHT22;3777;48.722;8.110;2023-02-01T05:50:51;6.80;99.90
7472;DHT22;3777;48.722;8.110;2023-02-01T05:53:18;6.90;99.90
7472;DHT22;3777;48.722;8.110;2023-02-01T05:55:44;6.90;99.90
7472;DHT22;3777;48.722;8.110;2023-02-01T05:58:11;6.90;99.90
7472;DHT22;3777;48.722;8.110;2023-02-01T06:00:39;6.90;99.90
7472;DHT22;3777;48.722;8.110;2023-02-01T06:03:06;6.70;99.90
7472;DHT22;3777;48.722;8.110;2023-02-01T06:05:33;6.60;99.90
7472;DHT22;3777;48.722;8.110;2023-02-01T06:08:01;6.40;99.90
7472;DHT22;3777;48.722;8.110;2023-02-01T06:10:28;6.30;99.90
7472;DHT22;3777;48.722;8.110;2023-02-01T06:12:55;6.20;99.90
7472;DHT22;3777;48.722;8.110;2023-02-01T06:15:22;6.20;99.90
7472;DHT22;3777;48.722;8.110;2023-02-01T06:17:49;6.30;99.90
7472;DHT22;3777;48.722;8.110;2023-02-01T06:20:16;6.10;99.90
7472;DHT22;3777;48.722;8.110;2023-02-01T06:22:43;6.00;99.90
7472;DHT22;3777;48.722;8.110;2023-02-01T06:25:12;5.90;99.90
7472;DHT22;3777;48.722;8.110;2023-02-01T06:27:39;6.00;99.90
7472;DHT22;3777;48.722;8.110;2023-02-01T06:30:07;5.90;99.90
7472;DHT22;3777;48.722;8.110;2023-02-01T06:32:34;5.80;99.90
7472;DHT22;3777;48.722;8.110;2023-02-01T06:35:01;5.80;99.90
7472;DHT22;3777;48.722;8.110;2023-02-01T06:37:28;5.80;99.90
7472;DHT22;3777;48.722;8.110;2023-02-01T06:39:55;5.70;99.90
7472;DHT22;3777;48.722;8.110;2023-02-01T06:42:24;5.60;99.90
7472;DHT22;3777;48.722;8.110;2023-02-01T06:44:51;5.60;99.90
7472;DHT22;3777;48.722;8.110;2023-02-01T06:47:18;5.60;99.90
7472;DHT22;3777;48.722;8.110;2023-02-01T06:49:45;5.50;99.90
7472;DHT22;3777;48.722;8.110;2023-02-01T06:52:11;5.50;99.90
7472;DHT22;3777;48.722;8.110;2023-02-01T06:54:38;5.50;99.90
7472;DHT22;3777;48.722;8.110;2023-02-01T06:57:05;5.60;99.90
7472;DHT22;3777;48.722;8.110;2023-02-01T06:59:34;5.60;99.90
7472;DHT22;3777;48.722;8.110;2023-02-01T07:02:00;5.60;99.90
7472;DHT22;3777;48.722;8.110;2023-02-01T07:04:27;5.60;99.90
7472;DHT22;3777;48.722;8.110;2023-02-01T07:06:54;5.60;99.90
7472;DHT22;3777;48.722;8.110;2023-02-01T07:09:21;5.60;99.90
7472;DHT22;3777;48.722;8.110;2023-02-01T07:11:48;5.60;99.90
7472;DHT22;3777;48.722;8.110;2023-02-01T07:14:15;5.60;99.90
7472;DHT22;3777;48.722;8.110;2023-02-01T07:16:43;5.70;99.90
7472;DHT22;3777;48.722;8.110;2023-02-01T07:19:10;5.80;99.90
7472;DHT22;3777;48.722;8.110;2023-02-01T07:21:37;5.70;99.90
7472;DHT22;3777;48.722;8.110;2023-02-01T07:24:05;5.80;99.90
7472;DHT22;3777;48.722;8.110;2023-02-01T07:26:32;5.90;99.90
7472;DHT22;3777;48.722;8.110;2023-02-01T07:28:59;5.90;99.90
7472;DHT22;3777;48.722;8.110;2023-02-01T07:31:25;5.90;99.90
7472;DHT22;3777;48.722;8.110;2023-02-01T07:33:55;6.00;99.90
7472;DHT22;3777;48.722;8.110;2023-02-01T07:36:24;6.10;99.90
7472;DHT22;3777;48.722;8.110;2023-02-01T07:38:51;6.10;99.90
7472;DHT22;3777;48.722;8.110;2023-02-01T07:41:18;6.00;99.90
7472;DHT22;3777;48.722;8.110;2023-02-01T07:43:45;5.90;99.90
7472;DHT22;3777;48.722;8.110;2023-02-01T07:46:12;5.90;99.90
7472;DHT22;3777;48.722;8.110;2023-02-01T07:48:40;5.90;99.90
7472;DHT22;3777;48.722;8.110;2023-02-01T07:51:11;5.90;99.90
7472;DHT22;3777;48.722;8.110;2023-02-01T07:53:39;5.90;99.90
7472;DHT22;3777;48.722;8.110;2023-02-01T07:56:10;5.90;99.90
7472;DHT22;3777;48.722;8.110;2023-02-01T07:58:38;5.80;99.90
7472;DHT22;3777;48.722;8.110;2023-02-01T08:01:05;5.80;99.90
7472;DHT22;3777;48.722;8.110;2023-02-01T08:03:47;5.80;99.90
7472;DHT22;3777;48.722;8.110;2023-02-01T08:06:16;5.80;99.90
7472;DHT22;3777;48.722;8.110;2023-02-01T08:08:43;5.70;99.90
7472;DHT22;3777;48.722;8.110;2023-02-01T08:11:13;5.70;99.90
7472;DHT22;3777;48.722;8.110;2023-02-01T08:13:40;5.70;99.90
7472;DHT22;3777;48.722;8.110;2023-02-01T08:16:09;5.70;99.90
7472;DHT22;3777;48.722;8.110;2023-02-01T08:18:38;5.70;99.90
7472;DHT22;3777;48.722;8.110;2023-02-01T08:21:06;5.80;99.90
7472;DHT22;3777;48.722;8.110;2023-02-01T08:23:36;5.80;99.90
7472;DHT22;3777;48.722;8.110;2023-02-01T08:26:11;5.80;99.90
7472;DHT22;3777;48.722;8.110;2023-02-01T08:28:39;5.80;99.90
7472;DHT22;3777;48.722;8.110;2023-02-01T08:31:08;5.90;99.90
7472;DHT22;3777;48.722;8.110;2023-02-01T08:33:35;5.90;99.90
7472;DHT22;3777;48.722;8.110;2023-02-01T08:36:04;6.10;99.90
7472;DHT22;3777;48.722;8.110;2023-02-01T08:38:32;6.10;99.90
7472;DHT22;3777;48.722;8.110;2023-02-01T08:41:06;6.10;99.90
7472;DHT22;3777;48.722;8.110;2023-02-01T08:43:33;6.20;99.90
7472;DHT22;3777;48.722;8.110;2023-02-01T08:46:00;6.30;99.90
7472;DHT22;3777;48.722;8.110;2023-02-01T08:48:28;6.30;99.90
7472;DHT22;3777;48.722;8.110;2023-02-01T08:50:54;6.50;99.90
7472;DHT22;3777;48.722;8.110;2023-02-01T08:53:21;6.50;99.90
7472;DHT22;3777;48.722;8.110;2023-02-01T08:55:48;6.60;99.90
7472;DHT22;3777;48.722;8.110;2023-02-01T08:58:17;6.80;99.90
7472;DHT22;3777;48.722;8.110;2023-02-01T09:00:45;7.00;99.90
7472;DHT22;3777;48.722;8.110;2023-02-01T09:03:13;7.00;99.90
7472;DHT22;3777;48.722;8.110;2023-02-01T09:05:40;7.00;99.90
7472;DHT22;3777;48.722;8.110;2023-02-01T09:08:08;7.10;99.90
7472;DHT22;3777;48.722;8.110;2023-02-01T09:10:35;7.00;99.90
7472;DHT22;3777;48.722;8.110;2023-02-01T09:13:03;6.80;99.90
7472;DHT22;3777;48.722;8.110;2023-02-01T09:15:31;6.80;99.90
7472;DHT22;3777;48.722;8.110;2023-02-01T09:17:58;6.90;99.90
7472;DHT22;3777;48.722;8.110;2023-02-01T09:20:25;7.00;99.90
7472;DHT22;3777;48.722;8.110;2023-02-01T09:22:52;6.90;99.90
7472;DHT22;3777;48.722;8.110;2023-02-01T09:25:19;7.00;99.90
7472;DHT22;3777;48.722;8.110;2023-02-01T09:27:46;7.10;99.90
7472;DHT22;3777;48.722;8.110;2023-02-01T09:30:13;7.10;99.90
7472;DHT22;3777;48.722;8.110;2023-02-01T09:32:42;7.20;99.90
7472;DHT22;3777;48.722;8.110;2023-02-01T09:35:09;7.50;99.90
7472;DHT22;3777;48.722;8.110;2023-02-01T09:37:35;7.60;99.90
7472;DHT22;3777;48.722;8.110;2023-02-01T09:40:04;7.60;99.90
7472;DHT22;3777;48.722;8.110;2023-02-01T09:42:44;7.70;99.90
7472;DHT22;3777;48.722;8.110;2023-02-01T09:45:22;7.90;99.90
7472;DHT22;3777;48.722;8.110;2023-02-01T09:47:55;7.90;99.90
7472;DHT22;3777;48.722;8.110;2023-02-01T09:50:30;7.90;99.90
7472;DHT22;3777;48.722;8.110;2023-02-01T09:53:02;8.00;99.90
7472;DHT22;3777;48.722;8.110;2023-02-01T09:55:36;7.90;99.90
7472;DHT22;3777;48.722;8.110;2023-02-01T09:58:07;7.90;99.90
7472;DHT22;3777;48.722;8.110;2023-02-01T10:00:37;8.00;99.90
7472;DHT22;3777;48.722;8.110;2023-02-01T10:03:11;7.70;99.90
7472;DHT22;3777;48.722;8.110;2023-02-01T10:06:06;7.80;99.90
7472;DHT22;3777;48.722;8.110;2023-02-01T10:08:51;8.00;99.90
7472;DHT22;3777;48.722;8.110;2023-02-01T10:11:27;8.10;99.90
7472;DHT22;3777;48.722;8.110;2023-02-01T10:14:25;8.20;99.90
7472;DHT22;3777;48.722;8.110;2023-02-01T10:17:03;8.20;99.90
7472;DHT22;3777;48.722;8.110;2023-02-01T10:19:39;8.20;99.90
7472;DHT22;3777;48.722;8.110;2023-02-01T10:22:11;8.20;99.90
7472;DHT22;3777;48.722;8.110;2023-02-01T10:24:47;8.20;99.90
7472;DHT22;3777;48.722;8.110;2023-02-01T10:27:20;8.20;99.90
7472;DHT22;3777;48.722;8.110;2023-02-01T10:29:51;8.20;99.90
7472;DHT22;3777;48.722;8.110;2023-02-01T10:32:22;8.20;99.90
7472;DHT22;3777;48.722;8.110;2023-02-01T10:34:55;8.20;99.90
7472;DHT22;3777;48.722;8.110;2023-02-01T10:37:31;7.90;99.90
7472;DHT22;3777;48.722;8.110;2023-02-01T10:40:02;7.90;99.90
7472;DHT22;3777;48.722;8.110;2023-02-01T10:42:31;7.80;99.90
7472;DHT22;3777;48.722;8.110;2023-02-01T10:44:59;7.90;99.90
7472;DHT22;3777;48.722;8.110;2023-02-01T10:47:27;7.90;99.90
7472;DHT22;3777;48.722;8.110;2023-02-01T10:50:02;7.70;99.90
7472;DHT22;3777;48.722;8.110;2023-02-01T10:52:36;7.60;99.90
7472;DHT22;3777;48.722;8.110;2023-02-01T10:55:35;7.50;99.90
7472;DHT22;3777;48.722;8.110;2023-02-01T10:58:04;7.40;99.90
7472;DHT22;3777;48.722;8.110;2023-02-01T11:00:44;7.30;99.90
7472;DHT22;3777;48.722;8.110;2023-02-01T11:03:34;7.20;99.90
7472;DHT22;3777;48.722;8.110;2023-02-01T11:06:11;7.10;99.90
7472;DHT22;3777;48.722;8.110;2023-02-01T11:08:49;7.20;99.90
7472;DHT22;3777;48.722;8.110;2023-02-01T11:11:17;7.20;99.90
7472;DHT22;3777;48.722;8.110;2023-02-01T11:13:44;7.20;99.90
7472;DHT22;3777;48.722;8.110;2023-02-01T11:16:18;7.20;99.90
7472;DHT22;3777;48.722;8.110;2023-02-01T11:18:45;7.20;99.90
7472;DHT22;3777;48.722;8.110;2023-02-01T11:21:16;7.30;99.90
7472;DHT22;3777;48.722;8.110;2023-02-01T11:23:45;7.30;99.90
7472;DHT22;3777;48.722;8.110;2023-02-01T11:26:14;7.30;99.90
7472;DHT22;3777;48.722;8.110;2023-02-01T11:28:52;7.40;99.90
7472;DHT22;3777;48.722;8.110;2023-02-01T11:31:20;7.50;99.90
7472;DHT22;3777;48.722;8.110;2023-02-01T11:33:50;7.70;99.90
7472;DHT22;3777;48.722;8.110;2023-02-01T11:36:23;7.70;99.90
7472;DHT22;3777;48.722;8.110;2023-02-01T11:38:54;7.50;99.90
7472;DHT22;3777;48.722;8.110;2023-02-01T11:41:24;7.50;99.90
7472;DHT22;3777;48.722;8.110;2023-02-01T11:43:53;7.50;99.90
7472;DHT22;3777;48.722;8.110;2023-02-01T11:46:24;7.40;99.90
7472;DHT22;3777;48.722;8.110;2023-02-01T11:48:53;7.60;99.90
7472;DHT22;3777;48.722;8.110;2023-02-01T11:51:44;7.80;99.90
7472;DHT22;3777;48.722;8.110;2023-02-01T11:54:29;7.80;99.90
7472;DHT22;3777;48.722;8.110;2023-02-01T11:57:08;7.70;99.90
7472;DHT22;3777;48.722;8.110;2023-02-01T11:59:53;7.70;99.90
7472;DHT22;3777;48.722;8.110;2023-02-01T12:05:32;7.80;99.90
7472;DHT22;3777;48.722;8.110;2023-02-01T12:08:26;7.80;99.90
7472;DHT22;3777;48.722;8.110;2023-02-01T12:11:08;7.70;99.90
7472;DHT22;3777;48.722;8.110;2023-02-01T12:13:48;7.90;99.90
7472;DHT22;3777;48.722;8.110;2023-02-01T12:16:28;8.00;99.90
7472;DHT22;3777;48.722;8.110;2023-02-01T12:19:15;8.00;99.90
7472;DHT22;3777;48.722;8.110;2023-02-01T12:21:57;8.10;99.90
7472;DHT22;3777;48.722;8.110;2023-02-01T12:27:46;8.10;99.90
7472;DHT22;3777;48.722;8.110;2023-02-01T12:30:41;8.00;99.90
7472;DHT22;3777;48.722;8.110;2023-02-01T12:33:17;8.10;99.90
7472;DHT22;3777;48.722;8.110;2023-02-01T12:35:54;8.10;99.90
7472;DHT22;3777;48.722;8.110;2023-02-01T12:38:52;7.90;99.90
7472;DHT22;3777;48.722;8.110;2023-02-01T12:41:45;7.90;99.90
7472;DHT22;3777;48.722;8.110;2023-02-01T12:47:06;7.70;99.90
7472;DHT22;3777;48.722;8.110;2023-02-01T12:49:44;7.80;99.90
7472;DHT22;3777;48.722;8.110;2023-02-01T12:52:16;7.80;99.90
7472;DHT22;3777;48.722;8.110;2023-02-01T12:54:48;7.70;99.90
7472;DHT22;3777;48.722;8.110;2023-02-01T12:57:21;7.80;99.90
7472;DHT22;3777;48.722;8.110;2023-02-01T12:59:54;7.80;99.90
7472;DHT22;3777;48.722;8.110;2023-02-01T13:02:27;7.90;99.90
7472;DHT22;3777;48.722;8.110;2023-02-01T13:04:59;8.00;99.90
7472;DHT22;3777;48.722;8.110;2023-02-01T13:07:34;8.10;99.90
7472;DHT22;3777;48.722;8.110;2023-02-01T13:10:12;8.20;99.90
7472;DHT22;3777;48.722;8.110;2023-02-01T13:12:44;8.20;99.90
7472;DHT22;3777;48.722;8.110;2023-02-01T13:15:19;8.20;99.90
7472;DHT22;3777;48.722;8.110;2023-02-01T13:17:48;8.20;99.90
7472;DHT22;3777;48.722;8.110;2023-02-01T13:20:21;8.30;99.90
7472;DHT22;3777;48.722;8.110;2023-02-01T13:22:53;8.40;99.90
7472;DHT22;3777;48.722;8.110;2023-02-01T13:25:29;8.40;99.90
7472;DHT22;3777;48.722;8.110;2023-02-01T13:28:00;8.50;99.90
7472;DHT22;3777;48.722;8.110;2023-02-01T13:30:38;8.50;99.90
7472;DHT22;3777;48.722;8.110;2023-02-01T13:33:23;8.40;99.90
7472;DHT22;3777;48.722;8.110;2023-02-01T13:36:23;8.40;99.90
7472;DHT22;3777;48.722;8.110;2023-02-01T13:39:32;8.20;99.90
7472;DHT22;3777;48.722;8.110;2023-02-01T13:42:02;8.30;99.90
7472;DHT22;3777;48.722;8.110;2023-02-01T13:44:33;8.40;99.90
7472;DHT22;3777;48.722;8.110;2023-02-01T13:47:25;8.40;99.90
7472;DHT22;3777;48.722;8.110;2023-02-01T13:49:54;8.40;99.90
7472;DHT22;3777;48.722;8.110;2023-02-01T13:52:27;8.40;99.90
7472;DHT22;3777;48.722;8.110;2023-02-01T13:55:13;8.40;99.90
7472;DHT22;3777;48.722;8.110;2023-02-01T13:57:42;8.40;99.90
7472;DHT22;3777;48.722;8.110;2023-02-01T14:00:24;8.40;99.90
7472;DHT22;3777;48.722;8.110;2023-02-01T14:03:15;8.30;99.90
7472;DHT22;3777;48.722;8.110;2023-02-01T14:06:01;8.20;99.90
7472;DHT22;3777;48.722;8.110;2023-02-01T14:08:44;8.20;99.90
7472;DHT22;3777;48.722;8.110;2023-02-01T14:11:32;8.20;99.90
7472;DHT22;3777;48.722;8.110;2023-02-01T14:23:37;8.40;99.90
7472;DHT22;3777;48.722;8.110;2023-02-01T14:26:17;8.40;99.90
7472;DHT22;3777;48.722;8.110;2023-02-01T14:28:51;8.40;99.90
7472;DHT22;3777;48.722;8.110;2023-02-01T14:34:23;8.50;99.90
7472;DHT22;3777;48.722;8.110;2023-02-01T14:36:56;8.60;99.90
7472;DHT22;3777;48.722;8.110;2023-02-01T14:39:35;8.60;99.90
7472;DHT22;3777;48.722;8.110;2023-02-01T14:42:18;8.60;99.90
7472;DHT22;3777;48.722;8.110;2023-02-01T14:44:47;8.60;99.90
7472;DHT22;3777;48.722;8.110;2023-02-01T14:47:33;8.50;99.90
7472;DHT22;3777;48.722;8.110;2023-02-01T14:50:29;8.30;99.90
7472;DHT22;3777;48.722;8.110;2023-02-01T14:53:09;8.40;99.90
7472;DHT22;3777;48.722;8.110;2023-02-01T14:55:40;8.40;99.90
7472;DHT22;3777;48.722;8.110;2023-02-01T14:58:16;8.30;99.90
7472;DHT22;3777;48.722;8.110;2023-02-01T15:00:48;8.30;99.90
7472;DHT22;3777;48.722;8.110;2023-02-01T15:03:25;8.20;99.90
7472;DHT22;3777;48.722;8.110;2023-02-01T15:05:58;8.10;99.90
7472;DHT22;3777;48.722;8.110;2023-02-01T15:08:28;7.80;99.90
7472;DHT22;3777;48.722;8.110;2023-02-01T15:11:01;7.60;99.90
7472;DHT22;3777;48.722;8.110;2023-02-01T15:13:29;7.60;99.90
7472;DHT22;3777;48.722;8.110;2023-02-01T15:16:01;7.80;99.90
7472;DHT22;3777;48.722;8.110;2023-02-01T15:18:28;7.90;99.90
7472;DHT22;3777;48.722;8.110;2023-02-01T15:20:59;7.90;99.90
7472;DHT22;3777;48.722;8.110;2023-02-01T15:23:27;7.80;99.90
7472;DHT22;3777;48.722;8.110;2023-02-01T15:25:54;7.90;99.90
7472;DHT22;3777;48.722;8.110;2023-02-01T15:28:23;8.00;99.90
7472;DHT22;3777;48.722;8.110;2023-02-01T15:30:55;8.00;99.90
7472;DHT22;3777;48.722;8.110;2023-02-01T15:33:23;7.90;99.90
7472;DHT22;3777;48.722;8.110;2023-02-01T15:35:51;8.00;99.90
7472;DHT22;3777;48.722;8.110;2023-02-01T15:38:37;8.10;99.90
7472;DHT22;3777;48.722;8.110;2023-02-01T15:41:08;8.20;99.90
7472;DHT22;3777;48.722;8.110;2023-02-01T15:43:39;8.20;99.90
7472;DHT22;3777;48.722;8.110;2023-02-01T15:46:10;8.30;99.90
7472;DHT22;3777;48.722;8.110;2023-02-01T15:48:41;8.30;99.90
7472;DHT22;3777;48.722;8.110;2023-02-01T15:51:19;8.30;99.90
7472;DHT22;3777;48.722;8.110;2023-02-01T15:53:53;8.30;99.90
7472;DHT22;3777;48.722;8.110;2023-02-01T15:56:23;8.30;99.90
7472;DHT22;3777;48.722;8.110;2023-02-01T15:58:55;8.30;99.90
7472;DHT22;3777;48.722;8.110;2023-02-01T16:01:23;8.30;99.90
7472;DHT22;3777;48.722;8.110;2023-02-01T16:04:03;8.30;99.90
7472;DHT22;3777;48.722;8.110;2023-02-01T16:06:31;8.30;99.90
7472;DHT22;3777;48.722;8.110;2023-02-01T16:09:09;8.30;99.90
7472;DHT22;3777;48.722;8.110;2023-02-01T16:11:46;8.30;99.90
7472;DHT22;3777;48.722;8.110;2023-02-01T16:14:15;8.20;99.90
7472;DHT22;3777;48.722;8.110;2023-02-01T16:16:42;8.10;99.90
7472;DHT22;3777;48.722;8.110;2023-02-01T16:19:09;8.10;99.90
7472;DHT22;3777;48.722;8.110;2023-02-01T16:21:36;8.10;99.90
7472;DHT22;3777;48.722;8.110;2023-02-01T16:24:03;8.10;99.90
7472;DHT22;3777;48.722;8.110;2023-02-01T16:26:30;8.10;99.90
7472;DHT22;3777;48.722;8.110;2023-02-01T16:28:58;8.10;99.90
7472;DHT22;3777;48.722;8.110;2023-02-01T16:31:30;8.00;99.90
7472;DHT22;3777;48.722;8.110;2023-02-01T16:33:58;8.00;99.90
7472;DHT22;3777;48.722;8.110;2023-02-01T16:36:25;7.80;99.90
7472;DHT22;3777;48.722;8.110;2023-02-01T16:38:53;7.80;99.90
7472;DHT22;3777;48.722;8.110;2023-02-01T16:41:21;7.70;99.90
7472;DHT22;3777;48.722;8.110;2023-02-01T16:43:50;7.70;99.90
7472;DHT22;3777;48.722;8.110;2023-02-01T16:46:18;7.60;99.90
7472;DHT22;3777;48.722;8.110;2023-02-01T16:48:51;7.60;99.90
7472;DHT22;3777;48.722;8.110;2023-02-01T16:51:18;7.60;99.90
7472;DHT22;3777;48.722;8.110;2023-02-01T16:53:46;7.70;99.90
7472;DHT22;3777;48.722;8.110;2023-02-01T16:56:14;7.70;99.90
7472;DHT22;3777;48.722;8.110;2023-02-01T16:58:42;7.80;99.90
7472;DHT22;3777;48.722;8.110;2023-02-01T17:01:11;7.80;99.90
7472;DHT22;3777;48.722;8.110;2023-02-01T17:03:38;7.80;99.90
7472;DHT22;3777;48.722;8.110;2023-02-01T17:06:07;7.80;99.90
7472;DHT22;3777;48.722;8.110;2023-02-01T17:08:36;7.80;99.90
7472;DHT22;3777;48.722;8.110;2023-02-01T17:11:05;7.70;99.90
7472;DHT22;3777;48.722;8.110;2023-02-01T17:13:34;7.70;99.90